CMA CGM Marseille — 2IJJ2 — position and weather

sailwx.info

Track history (hours):
 
Tides and Currents Weather Stations Pressure Air Temp Water Temp Dewpoint Dewpoint Depression Visibility Wind Speed Wind Dir Waves Ship Positions

CMA CGM Marseille

Last reported at 2017-Oct-17 12:36 UTC. Time now 2017-Oct-18 06:06 UTC.
Position S 00°06' W 047°37'.

Length 190 m; draft 6.2 m.

Type: Ship (hazmat cat A). MMSI: 235110247.

Date/timePositionNaut miles runAvg speedWind from/ knotsBaromVisibWave heightAir tempDewpointWater temp
2017-Oct-17 12:36S 00°06' W 047°37'214.9
2017-Oct-17 12:27S 00°07' W 047°39'714.8
2017-Oct-17 12:00S 00°10' W 047°45'915.6
2017-Oct-17 11:25S 00°15' W 047°53'614.1
2017-Oct-17 11:01S 00°18' W 047°58'612.7
2017-Oct-17 10:31S 00°20' W 048°04'612.8
2017-Oct-17 10:01S 00°23' W 048°09'611.7
2017-Oct-17 09:31S 00°27' W 048°14'611.8
2017-Oct-17 09:01S 00°31' W 048°18'612.0
2017-Oct-17 08:30S 00°36' W 048°22'713.2
2017-Oct-17 08:00S 00°42' W 048°25'1213.2
2017-Oct-17 07:04S 00°54' W 048°28'314.4
2017-Oct-17 06:52S 00°56' W 048°27'514.3
2017-Oct-17 06:30S 01°01' W 048°28'715.2
2017-Oct-17 06:00S 01°08' W 048°32'510.5
2017-Oct-17 05:30S 01°13' W 048°34'918.5
2017-Oct-17 05:00S 01°20' W 048°40'917.6
2017-Oct-17 04:30S 01°28' W 048°44'5 8.7
2017-Oct-17 03:59S 01°32' W 048°45'0 0.0
2017-Oct-17 03:11S 01°32' W 048°45'0 0.0
2017-Oct-17 02:47S 01°32' W 048°45'0 0.0
2017-Oct-16 13:59S 01°32' W 048°45'0 0.0
2017-Oct-16 13:23S 01°32' W 048°45'0 0.0
2017-Oct-16 12:59S 01°32' W 048°45'0 0.0
2017-Oct-16 12:23S 01°32' W 048°45'0 0.0
2017-Oct-16 11:59S 01°32' W 048°45'0 0.0
2017-Oct-16 11:25S 01°32' W 048°45'0 0.6
2017-Oct-16 11:00S 01°32' W 048°45'8512.6
2017-Oct-16 04:15S 00°19' W 048°01'313.8
2017-Oct-16 04:00S 00°18' W 047°59'612.5
2017-Oct-16 03:31S 00°14' W 047°54'713.4
2017-Oct-16 03:00S 00°08' W 047°51'  
Track history (hours):
 
Tides and Currents Weather Stations Pressure Air Temp Water Temp Dewpoint Dewpoint Depression Visibility Wind Speed Wind Dir Waves Ship Positions

CMA CGM Marseille

Last reported at 2017-Oct-17 12:36 UTC. Time now 2017-Oct-18 06:06 UTC.
Position S 00°06' W 047°37'.

Length 190 m; draft 6.2 m.

Type: Ship (hazmat cat A). MMSI: 235110247.

Date/timePositionNaut miles runAvg speedWind from/ knotsBaromVisibWave heightAir tempDewpointWater temp
2017-Oct-17 12:36S 00°06' W 047°37'214.9
2017-Oct-17 12:27S 00°07' W 047°39'714.8
2017-Oct-17 12:00S 00°10' W 047°45'915.6
2017-Oct-17 11:25S 00°15' W 047°53'614.1
2017-Oct-17 11:01S 00°18' W 047°58'612.7
2017-Oct-17 10:31S 00°20' W 048°04'612.8
2017-Oct-17 10:01S 00°23' W 048°09'611.7
2017-Oct-17 09:31S 00°27' W 048°14'611.8
2017-Oct-17 09:01S 00°31' W 048°18'612.0
2017-Oct-17 08:30S 00°36' W 048°22'713.2
2017-Oct-17 08:00S 00°42' W 048°25'1213.2
2017-Oct-17 07:04S 00°54' W 048°28'314.4
2017-Oct-17 06:52S 00°56' W 048°27'514.3
2017-Oct-17 06:30S 01°01' W 048°28'715.2
2017-Oct-17 06:00S 01°08' W 048°32'510.5
2017-Oct-17 05:30S 01°13' W 048°34'918.5
2017-Oct-17 05:00S 01°20' W 048°40'917.6
2017-Oct-17 04:30S 01°28' W 048°44'5 8.7
2017-Oct-17 03:59S 01°32' W 048°45'0 0.0
2017-Oct-17 03:11S 01°32' W 048°45'0 0.0
2017-Oct-17 02:47S 01°32' W 048°45'0 0.0
2017-Oct-16 13:59S 01°32' W 048°45'0 0.0
2017-Oct-16 13:23S 01°32' W 048°45'0 0.0
2017-Oct-16 12:59S 01°32' W 048°45'0 0.0
2017-Oct-16 12:23S 01°32' W 048°45'0 0.0
2017-Oct-16 11:59S 01°32' W 048°45'0 0.0
2017-Oct-16 11:25S 01°32' W 048°45'0 0.6
2017-Oct-16 11:00S 01°32' W 048°45'8512.6
2017-Oct-16 04:15S 00°19' W 048°01'313.8
2017-Oct-16 04:00S 00°18' W 047°59'612.5
2017-Oct-16 03:31S 00°14' W 047°54'713.4
2017-Oct-16 03:00S 00°08' W 047°51'  

Dump ship's entire track history